Startpagina
METAR-TAF:

METAR-TAF

Vliegvelden :

Niamey, Niger

Luchthaven Diori Hamani

breedte: 13-29N, lengte: 002-10E, hoogte: 223 m

Actueel weer

Dit bericht is 16 minuten geleden gemaakt, om 20:00 UTC
Wind 8 kt uit het noordwesten
Temperatuur 31°C
Vochtigheid 40%
Druk 1010 hPa
Zicht: 8000 m

METAR: DRRN 242000Z 31008KT 8000 NSC 31/16 Q1010 NOSIG

Tijdstip: 21:16 (20:16 UTC)

Verwachting

Dit bericht is 3 uur en het 16 minuten geleden gemaakt, om 17:00 UTC
Verwachting geldig van 24 om 18 UTC tot 25 om 24 UTC
Wind 10 kt uit het noordwesten
Zicht: 6000 m
Tijdelijke
van 25 om 06 UTC tot 25 om 10 UTC
Wind 20 kt uit het noordoosten
Zicht: 3500 m
Stuifstof
Kans 30% :
Tijdelijke
van 24 om 17 UTC tot 24 om 21 UTC
Wind 20 kt uit variabele richting met uitschieters tot 30 kt
Zicht: 1200 m
Weinig wolken op 4500 ft, Cumulonimbus.
Stuifstof, onweer

TAF: DRRN 241700Z 2418/2524 32010KT 6000 NSC TEMPO 2506/2510 04020KT 3500 BLDU PROB30 TEMPO 2417/2421 VRB20G30KT 1200 BLDU TS FEW045CB

Waarnemingen en weersverwachtingen van meer dan 4000 vliegvelden (METAR en TAF).

De beschikbare stations zijn de gele en rode punten op de kaart.

Ga met uw muis naar het station om de naam te zien.

Klik dan om waarnemingen en weersverwachtingen te zien.

kaart wijzigen: klik op de groene knoppen met een zwart kruis om in te zoomen, op de groene knop met een streepje om uit te zoomen of op de groene pijlen voor aangrenzende kaarten.


METAR-TAF: